createdAt,value
2023-04-15T00:01:22.470Z,2.2
2023-04-15T00:03:22.417Z,2.2
2023-04-15T00:05:21.308Z,2.21
2023-04-15T00:07:20.685Z,2.21
2023-04-15T00:09:20.414Z,2.21
2023-04-15T00:11:20.906Z,2.22
2023-04-15T00:13:20.331Z,2.22
2023-04-15T00:15:20.880Z,2.22
2023-04-15T00:17:20.996Z,2.22
2023-04-15T00:19:21.553Z,2.22
2023-04-15T00:21:20.554Z,2.22
2023-04-15T00:23:20.154Z,2.23
2023-04-15T00:25:20.861Z,2.23
2023-04-15T00:27:20.213Z,2.23
2023-04-15T00:29:20.994Z,2.24
2023-04-15T00:31:20.828Z,2.24
2023-04-15T00:33:21.141Z,2.24
2023-04-15T00:35:20.196Z,2.25
2023-04-15T00:37:20.507Z,2.25
2023-04-15T00:39:20.261Z,2.25
2023-04-15T00:41:20.754Z,2.26
2023-04-15T00:43:20.281Z,2.26
2023-04-15T00:45:20.534Z,2.26
2023-04-15T00:47:20.732Z,2.28
2023-04-15T00:49:21.486Z,2.28
2023-04-15T00:51:20.556Z,2.28
2023-04-15T00:53:20.036Z,2.29
2023-04-15T00:55:20.532Z,2.29
2023-04-15T00:57:20.000Z,2.29
2023-04-15T00:59:21.027Z,2.3
2023-04-15T01:01:24.453Z,2.3
2023-04-15T01:03:22.800Z,2.3
2023-04-15T01:05:20.763Z,2.3
2023-04-15T01:07:22.925Z,2.3
2023-04-15T01:09:20.625Z,2.3
2023-04-15T01:11:21.070Z,2.31
2023-04-15T01:13:20.533Z,2.31
2023-04-15T01:15:20.051Z,2.31
2023-04-15T01:17:20.934Z,2.31
2023-04-15T01:19:20.495Z,2.31
2023-04-15T01:21:20.604Z,2.31
2023-04-15T01:23:21.104Z,2.33
2023-04-15T01:25:20.330Z,2.33
2023-04-15T01:27:20.737Z,2.33
2023-04-15T01:29:20.619Z,2.35
2023-04-15T01:31:21.256Z,2.35
2023-04-15T01:33:20.480Z,2.35
2023-04-15T01:35:20.962Z,2.35
2023-04-15T01:37:20.361Z,2.35
2023-04-15T01:39:21.123Z,2.35
2023-04-15T01:41:20.335Z,2.35
2023-04-15T01:43:20.851Z,2.35
2023-04-15T01:45:20.327Z,2.35
2023-04-15T01:47:20.400Z,2.35
2023-04-15T01:49:21.142Z,2.35
2023-04-15T01:51:20.179Z,2.35
2023-04-15T01:53:20.668Z,2.35
2023-04-15T01:55:20.271Z,2.35
2023-04-15T01:57:24.310Z,2.35
2023-04-15T01:59:20.390Z,2.35
2023-04-15T02:01:27.065Z,2.35
2023-04-15T02:03:21.010Z,2.35
2023-04-15T02:05:20.877Z,2.35
2023-04-15T02:07:20.206Z,2.35
2023-04-15T02:09:20.848Z,2.35
2023-04-15T02:11:20.336Z,2.35
2023-04-15T02:13:21.029Z,2.35
2023-04-15T02:15:20.327Z,2.35
2023-04-15T02:17:21.290Z,2.35
2023-04-15T02:19:20.905Z,2.35
2023-04-15T02:21:21.519Z,2.36
2023-04-15T02:23:20.417Z,2.36
2023-04-15T02:25:20.103Z,2.37
2023-04-15T02:27:20.594Z,2.36
2023-04-15T02:29:21.176Z,2.36
2023-04-15T02:31:20.571Z,2.37
2023-04-15T02:33:20.845Z,2.36
2023-04-15T02:35:20.717Z,2.36
2023-04-15T02:37:20.380Z,2.37
2023-04-15T02:39:20.640Z,2.36
2023-04-15T02:41:20.100Z,2.36
2023-04-15T02:43:20.691Z,2.36
2023-04-15T02:45:20.188Z,2.36
2023-04-15T02:47:20.797Z,2.36
2023-04-15T02:49:20.026Z,2.37
2023-04-15T02:51:20.556Z,2.37
2023-04-15T02:53:20.419Z,2.37
2023-04-15T02:55:20.555Z,2.38
2023-04-15T02:57:20.044Z,2.38
2023-04-15T02:59:20.704Z,2.38
2023-04-15T03:01:23.917Z,2.37
2023-04-15T03:03:20.940Z,2.38
2023-04-15T03:05:20.968Z,2.38
2023-04-15T03:07:19.939Z,2.38
2023-04-15T03:09:20.579Z,2.38
2023-04-15T03:11:20.022Z,2.38
2023-04-15T03:13:20.773Z,2.38
2023-04-15T03:15:20.317Z,2.38
2023-04-15T03:17:20.824Z,2.38
2023-04-15T03:19:20.277Z,2.39
2023-04-15T03:21:20.960Z,2.39
2023-04-15T03:23:20.131Z,2.39
2023-04-15T03:25:20.764Z,2.39
2023-04-15T03:27:20.392Z,2.39
2023-04-15T03:29:20.970Z,2.39
2023-04-15T03:31:20.471Z,2.39
2023-04-15T03:33:21.266Z,2.39
2023-04-15T03:35:20.348Z,2.39
2023-04-15T03:37:20.658Z,2.41
2023-04-15T03:39:19.989Z,2.41
2023-04-15T03:41:20.770Z,2.41
2023-04-15T03:43:20.306Z,2.41
2023-04-15T03:45:20.760Z,2.41
2023-04-15T03:47:21.139Z,2.41
2023-04-15T03:49:35.392Z,2.42
2023-04-15T03:51:20.515Z,2.42
2023-04-15T03:53:22.823Z,2.42
2023-04-15T03:55:20.331Z,2.42
2023-04-15T03:57:20.713Z,2.42
2023-04-15T03:59:20.090Z,2.42
2023-04-15T04:01:25.530Z,2.43
2023-04-15T04:03:22.004Z,2.43
2023-04-15T04:05:21.692Z,2.43
2023-04-15T04:07:20.212Z,2.44
2023-04-15T04:09:20.712Z,2.43
2023-04-15T04:11:20.276Z,2.43
2023-04-15T04:13:20.936Z,2.44
2023-04-15T04:15:20.140Z,2.44
2023-04-15T04:17:21.795Z,2.44
2023-04-15T04:19:20.781Z,2.44
2023-04-15T04:21:20.160Z,2.44
2023-04-15T04:23:20.812Z,2.44
2023-04-15T04:25:20.302Z,2.44
2023-04-15T04:27:20.903Z,2.44
2023-04-15T04:29:20.466Z,2.44
2023-04-15T04:31:20.221Z,2.44
2023-04-15T04:33:21.328Z,2.44
2023-04-15T04:35:19.987Z,2.44
2023-04-15T04:37:20.685Z,2.44
2023-04-15T04:39:20.397Z,2.44
2023-04-15T04:41:21.096Z,2.44
2023-04-15T04:43:22.945Z,2.46
2023-04-15T04:45:19.966Z,2.44
2023-04-15T04:47:20.740Z,2.44
2023-04-15T04:49:21.054Z,2.46
2023-04-15T04:51:20.533Z,2.46
2023-04-15T04:53:20.022Z,2.46
2023-04-15T04:55:22.974Z,2.46
2023-04-15T04:57:20.499Z,2.44
2023-04-15T04:59:21.260Z,2.44
2023-04-15T05:01:25.497Z,2.44
2023-04-15T05:03:21.322Z,2.44
2023-04-15T05:05:21.097Z,2.44
2023-04-15T05:07:20.232Z,2.44
2023-04-15T05:09:20.663Z,2.44
2023-04-15T05:11:20.274Z,2.44
2023-04-15T05:13:20.537Z,2.44
2023-04-15T05:15:20.316Z,2.44
2023-04-15T05:17:20.699Z,2.44
2023-04-15T05:19:21.488Z,2.44
2023-04-15T05:21:20.436Z,2.43
2023-04-15T05:23:19.838Z,2.43
2023-04-15T05:25:20.528Z,2.43
2023-04-15T05:27:21.027Z,2.42
2023-04-15T05:29:20.544Z,2.42
2023-04-15T05:31:21.652Z,2.43
2023-04-15T05:33:20.922Z,2.43
2023-04-15T05:35:20.533Z,2.43
2023-04-15T05:37:20.780Z,2.43
2023-04-15T05:39:20.037Z,2.43
2023-04-15T05:41:20.708Z,2.43
2023-04-15T05:43:20.155Z,2.44
2023-04-15T05:45:20.882Z,2.44
2023-04-15T05:47:20.697Z,2.44
2023-04-15T05:49:20.751Z,2.44
2023-04-15T05:51:20.241Z,2.44
2023-04-15T05:53:20.831Z,2.44
2023-04-15T05:55:20.452Z,2.44
2023-04-15T05:57:20.689Z,2.44
2023-04-15T05:59:20.125Z,2.44
2023-04-15T06:01:23.882Z,2.43
2023-04-15T06:03:21.800Z,2.43
2023-04-15T06:05:21.404Z,2.43
2023-04-15T06:07:20.361Z,2.43
2023-04-15T06:09:20.940Z,2.42
2023-04-15T06:11:20.289Z,2.42
2023-04-15T06:13:20.839Z,2.42
2023-04-15T06:15:22.645Z,2.42
2023-04-15T06:17:21.392Z,2.42
2023-04-15T06:19:20.853Z,2.41
2023-04-15T06:21:20.886Z,2.41
2023-04-15T06:23:20.668Z,2.41
2023-04-15T06:25:20.930Z,2.41
2023-04-15T06:27:20.259Z,2.41
2023-04-15T06:29:20.959Z,2.41
2023-04-15T06:31:20.858Z,2.39
2023-04-15T06:33:20.958Z,2.39
2023-04-15T06:35:20.038Z,2.39
2023-04-15T06:37:20.502Z,2.39
2023-04-15T06:39:20.906Z,2.39
2023-04-15T06:41:20.333Z,2.39
2023-04-15T06:43:20.535Z,2.41
2023-04-15T06:45:20.641Z,2.39
2023-04-15T06:47:20.731Z,2.39
2023-04-15T06:49:20.664Z,2.38
2023-04-15T06:51:20.199Z,2.39
2023-04-15T06:53:20.485Z,2.39
2023-04-15T06:55:20.738Z,2.39
2023-04-15T06:57:20.174Z,2.38
2023-04-15T06:59:20.559Z,2.38
2023-04-15T07:01:25.985Z,2.39
2023-04-15T07:03:20.872Z,2.38
2023-04-15T07:05:21.003Z,2.38
2023-04-15T07:07:19.874Z,2.39
2023-04-15T07:09:20.562Z,2.39
2023-04-15T07:11:22.080Z,2.39
2023-04-15T07:13:20.541Z,2.39
2023-04-15T07:15:20.841Z,2.39
2023-04-15T07:17:21.159Z,2.39
2023-04-15T07:19:20.238Z,2.41
2023-04-15T07:21:20.687Z,2.41
2023-04-15T07:23:20.861Z,2.41
2023-04-15T07:25:20.482Z,2.41
2023-04-15T07:27:22.747Z,2.41
2023-04-15T07:29:20.265Z,2.41
2023-04-15T07:31:21.141Z,2.41
2023-04-15T07:33:20.354Z,2.41
2023-04-15T07:35:20.990Z,2.41
2023-04-15T07:37:20.188Z,2.41
2023-04-15T07:39:20.764Z,2.41
2023-04-15T07:41:20.726Z,2.41
2023-04-15T07:43:19.891Z,2.41
2023-04-15T07:45:20.583Z,2.41
2023-04-15T07:47:20.595Z,2.41
2023-04-15T07:49:23.534Z,2.42
2023-04-15T07:51:20.437Z,2.42
2023-04-15T07:53:20.129Z,2.42
2023-04-15T07:55:20.791Z,2.43
2023-04-15T07:57:20.001Z,2.43
2023-04-15T07:59:20.631Z,2.43
2023-04-15T08:01:23.395Z,2.46
2023-04-15T08:03:25.609Z,2.44
2023-04-15T08:05:21.831Z,2.44
2023-04-15T08:07:20.049Z,2.47
2023-04-15T08:09:20.753Z,2.47
2023-04-15T08:11:20.074Z,2.47
2023-04-15T08:13:20.663Z,2.47
2023-04-15T08:15:20.362Z,2.47
2023-04-15T08:17:21.529Z,2.47
2023-04-15T08:19:20.277Z,2.52
2023-04-15T08:21:20.675Z,2.52
2023-04-15T08:23:26.760Z,2.52
2023-04-15T08:25:21.405Z,2.55
2023-04-15T08:27:20.207Z,2.54
2023-04-15T08:29:20.725Z,2.54
2023-04-15T08:31:23.631Z,2.54
2023-04-15T08:33:20.940Z,2.52
2023-04-15T08:35:20.069Z,2.52
2023-04-15T08:37:22.674Z,2.52
2023-04-15T08:39:20.050Z,2.52
2023-04-15T08:41:20.550Z,2.52
2023-04-15T08:43:20.510Z,2.51
2023-04-15T08:45:20.712Z,2.51
2023-04-15T08:47:20.654Z,2.51
2023-04-15T08:49:20.932Z,2.51
2023-04-15T08:51:20.460Z,2.51
2023-04-15T08:53:21.012Z,2.51
2023-04-15T08:55:20.303Z,2.52
2023-04-15T08:57:20.198Z,2.51
2023-04-15T08:59:20.675Z,2.51
2023-04-15T09:01:25.307Z,2.52
2023-04-15T09:03:21.465Z,2.51
2023-04-15T09:05:21.029Z,2.51
2023-04-15T09:07:20.054Z,2.52
2023-04-15T09:09:21.358Z,2.52
2023-04-15T09:11:20.484Z,2.52
2023-04-15T09:13:20.946Z,2.54
2023-04-15T09:15:20.159Z,2.52
2023-04-15T09:17:24.241Z,2.52
2023-04-15T09:19:20.187Z,2.54
2023-04-15T09:21:20.899Z,2.54
2023-04-15T09:23:20.279Z,2.54
2023-04-15T09:25:21.206Z,2.54
2023-04-15T09:27:20.295Z,2.52
2023-04-15T09:29:21.021Z,2.52
2023-04-15T09:31:22.153Z,2.54
2023-04-15T09:33:20.838Z,2.52
2023-04-15T09:35:20.508Z,2.52
2023-04-15T09:37:32.081Z,2.54
2023-04-15T09:39:20.146Z,2.54
2023-04-15T09:41:20.849Z,2.54
2023-04-15T09:43:21.937Z,2.54
2023-04-15T09:45:21.017Z,2.52
2023-04-15T09:47:20.848Z,2.52
2023-04-15T09:49:21.058Z,2.55
2023-04-15T09:51:20.540Z,2.55
2023-04-15T09:53:25.371Z,2.55
2023-04-15T09:55:20.248Z,2.58
2023-04-15T09:57:21.023Z,2.58
2023-04-15T09:59:21.393Z,2.58
2023-04-15T10:01:24.040Z,2.56
2023-04-15T10:03:22.075Z,2.56
2023-04-15T10:05:22.257Z,2.56
2023-04-15T10:07:20.140Z,2.55
2023-04-15T10:09:20.739Z,2.55
2023-04-15T10:11:20.362Z,2.55
2023-04-15T10:13:20.521Z,2.54
2023-04-15T10:15:20.688Z,2.54
2023-04-15T10:17:21.024Z,2.54
2023-04-15T10:19:20.263Z,2.51
2023-04-15T10:21:20.626Z,2.5
2023-04-15T10:23:23.404Z,2.5
2023-04-15T10:25:21.015Z,2.5
2023-04-15T10:27:20.178Z,2.5
2023-04-15T10:29:22.551Z,2.5
2023-04-15T10:31:20.349Z,2.5
2023-04-15T10:33:21.170Z,2.5
2023-04-15T10:35:20.847Z,2.5
2023-04-15T10:37:20.912Z,2.47
2023-04-15T10:39:20.255Z,2.47
2023-04-15T10:41:21.736Z,2.47
2023-04-15T10:43:20.528Z,2.48
2023-04-15T10:45:21.351Z,2.48
2023-04-15T10:47:20.579Z,2.48
2023-04-15T10:49:22.714Z,2.48
2023-04-15T10:51:20.493Z,2.48
2023-04-15T10:53:21.798Z,2.48
2023-04-15T10:55:20.725Z,2.5
2023-04-15T10:57:20.182Z,2.5
2023-04-15T10:59:22.318Z,2.5
2023-04-15T11:01:25.308Z,2.48
2023-04-15T11:03:22.492Z,2.48
2023-04-15T11:05:21.757Z,2.48
2023-04-15T11:07:20.731Z,2.47
2023-04-15T11:09:20.352Z,2.47
2023-04-15T11:11:20.886Z,2.47
2023-04-15T11:13:20.556Z,2.46
2023-04-15T11:15:21.396Z,2.44
2023-04-15T11:17:21.294Z,2.44
2023-04-15T11:19:20.098Z,2.43
2023-04-15T11:21:20.855Z,2.43
2023-04-15T11:23:37.982Z,2.43
2023-04-15T11:25:22.604Z,2.43
2023-04-15T11:27:20.402Z,2.43
2023-04-15T11:29:22.625Z,2.43
2023-04-15T11:31:20.774Z,2.41
2023-04-15T11:33:20.699Z,2.41
2023-04-15T11:35:21.332Z,2.41
2023-04-15T11:37:20.216Z,2.41
2023-04-15T11:39:20.870Z,2.39
2023-04-15T11:41:21.245Z,2.39
2023-04-15T11:43:34.269Z,2.41
2023-04-15T11:45:21.075Z,2.41
2023-04-15T11:47:20.446Z,2.41
2023-04-15T11:49:20.644Z,2.39
2023-04-15T11:51:20.424Z,2.39
2023-04-15T11:53:20.584Z,2.39
2023-04-15T11:55:20.453Z,2.38
2023-04-15T11:57:20.658Z,2.38
2023-04-15T11:59:26.325Z,2.38
2023-04-15T12:01:24.456Z,2.39
2023-04-15T12:03:21.551Z,2.39
2023-04-15T12:05:23.165Z,2.39
2023-04-15T12:07:20.914Z,2.41
2023-04-15T12:09:20.262Z,2.39
2023-04-15T12:11:21.115Z,2.39
2023-04-15T12:13:20.381Z,2.41
2023-04-15T12:15:21.291Z,2.41
2023-04-15T12:17:51.352Z,2.41
2023-04-15T12:19:24.353Z,2.43
2023-04-15T12:21:20.399Z,2.42
2023-04-15T12:23:20.872Z,2.42
2023-04-15T12:25:20.277Z,2.41
2023-04-15T12:27:20.674Z,2.41
2023-04-15T12:29:20.242Z,2.41
2023-04-15T12:31:20.755Z,2.41
2023-04-15T12:33:20.686Z,2.41
2023-04-15T12:35:21.099Z,2.41
2023-04-15T12:37:20.644Z,2.41
2023-04-15T12:39:20.998Z,2.41
2023-04-15T12:41:20.189Z,2.41
2023-04-15T12:43:20.686Z,2.43
2023-04-15T12:45:20.368Z,2.43
2023-04-15T12:47:21.270Z,2.43
2023-04-15T12:49:20.078Z,2.44
2023-04-15T12:51:20.566Z,2.46
2023-04-15T12:53:20.215Z,2.46
2023-04-15T12:55:21.519Z,2.5
2023-04-15T12:57:20.505Z,2.48
2023-04-15T12:59:20.808Z,2.48
2023-04-15T13:01:24.944Z,2.47
2023-04-15T13:03:21.880Z,2.47
2023-04-15T13:05:21.419Z,2.47
2023-04-15T13:07:20.087Z,2.44
2023-04-15T13:09:32.817Z,2.43
2023-04-15T13:11:20.985Z,2.43
2023-04-15T13:13:20.370Z,2.41
2023-04-15T13:15:19.997Z,2.41
2023-04-15T13:17:21.249Z,2.41
2023-04-15T13:19:20.086Z,2.39
2023-04-15T13:21:20.425Z,2.39
2023-04-15T13:23:20.274Z,2.39
2023-04-15T13:25:20.993Z,2.38
2023-04-15T13:27:23.470Z,2.37
2023-04-15T13:29:20.633Z,2.37
2023-04-15T13:31:20.047Z,2.38
2023-04-15T13:33:23.884Z,2.37
2023-04-15T13:35:20.367Z,2.37
2023-04-15T13:37:20.454Z,2.39
2023-04-15T13:39:23.490Z,2.38
2023-04-15T13:41:20.426Z,2.38
2023-04-15T13:43:20.777Z,2.39
2023-04-15T13:45:20.499Z,2.39
2023-04-15T13:47:21.328Z,2.39
2023-04-15T13:49:20.430Z,2.41
2023-04-15T13:51:20.242Z,2.39
2023-04-15T13:53:20.711Z,2.39
2023-04-15T13:55:56.782Z,2.41
2023-04-15T13:57:20.609Z,2.39
2023-04-15T13:59:20.176Z,2.39
2023-04-15T14:01:26.502Z,2.39
2023-04-15T14:03:22.042Z,2.39
2023-04-15T14:05:20.896Z,2.39
2023-04-15T14:07:21.037Z,2.39
2023-04-15T14:09:20.168Z,2.39
2023-04-15T14:11:20.958Z,2.39
2023-04-15T14:13:20.431Z,2.41
2023-04-15T14:15:23.598Z,2.41
2023-04-15T14:17:20.487Z,2.41
2023-04-15T14:19:21.021Z,2.41
2023-04-15T14:21:23.129Z,2.41
2023-04-15T14:23:21.097Z,2.41
2023-04-15T14:25:32.845Z,2.41
2023-04-15T14:27:20.573Z,2.41
2023-04-15T14:29:20.343Z,2.41
2023-04-15T14:31:21.674Z,2.39
2023-04-15T14:33:31.617Z,2.38
2023-04-15T14:35:20.091Z,2.38
2023-04-15T14:37:20.768Z,2.38
2023-04-15T14:39:22.441Z,2.38
2023-04-15T14:41:20.918Z,2.38
2023-04-15T14:43:20.298Z,2.38
2023-04-15T14:45:20.728Z,2.36
2023-04-15T14:47:20.650Z,2.36
2023-04-15T14:49:21.162Z,2.38
2023-04-15T14:51:20.429Z,2.39
2023-04-15T14:53:20.783Z,2.39
2023-04-15T14:55:20.304Z,2.39
2023-04-15T14:57:20.673Z,2.37
2023-04-15T14:59:20.257Z,2.37
2023-04-15T15:01:24.044Z,2.38
2023-04-15T15:03:36.568Z,2.38
2023-04-15T15:05:20.681Z,2.38
2023-04-15T15:07:23.018Z,2.39
2023-04-15T15:09:20.325Z,2.39
2023-04-15T15:11:44.321Z,2.39
2023-04-15T15:13:20.358Z,2.39
2023-04-15T15:15:40.040Z,2.43
2023-04-15T15:17:22.327Z,2.43
2023-04-15T15:19:20.971Z,2.43
2023-04-15T15:21:20.318Z,2.43
2023-04-15T15:23:20.756Z,2.43
2023-04-15T15:25:20.332Z,2.43
2023-04-15T15:27:20.744Z,2.42
2023-04-15T15:29:20.581Z,2.42
2023-04-15T15:31:20.332Z,2.42
2023-04-15T15:33:20.661Z,2.42
2023-04-15T15:35:20.219Z,2.42
2023-04-15T15:37:20.816Z,2.42
2023-04-15T15:39:22.069Z,2.42
2023-04-15T15:41:20.694Z,2.42
2023-04-15T15:43:20.227Z,2.42
2023-04-15T15:45:20.982Z,2.41
2023-04-15T15:47:20.733Z,2.41
2023-04-15T15:49:20.854Z,2.41
2023-04-15T15:51:22.370Z,2.39
2023-04-15T15:53:21.511Z,2.39
2023-04-15T15:55:20.399Z,2.39
2023-04-15T15:57:20.690Z,2.39
2023-04-15T15:59:20.143Z,2.39
2023-04-15T16:01:34.259Z,2.39
2023-04-15T16:03:54.183Z,2.39
2023-04-15T16:05:21.731Z,2.39
2023-04-15T16:07:20.891Z,2.39
2023-04-15T16:09:20.223Z,2.39
2023-04-15T16:11:20.714Z,2.39
2023-04-15T16:13:20.289Z,2.39
2023-04-15T16:15:20.675Z,2.38
2023-04-15T16:17:20.889Z,2.38
2023-04-15T16:19:20.684Z,2.38
2023-04-15T16:21:20.401Z,2.39
2023-04-15T16:23:20.884Z,2.39
2023-04-15T16:25:20.350Z,2.39
2023-04-15T16:27:20.946Z,2.39
2023-04-15T16:29:34.480Z,2.39
2023-04-15T16:31:20.881Z,2.39
2023-04-15T16:33:21.204Z,2.44
2023-04-15T16:35:20.914Z,2.44
2023-04-15T16:37:20.330Z,2.44
2023-04-15T16:39:20.909Z,2.44
2023-04-15T16:41:20.445Z,2.44
2023-04-15T16:43:19.919Z,2.44
2023-04-15T16:45:20.449Z,2.44
2023-04-15T16:47:21.273Z,2.44
2023-04-15T16:49:20.567Z,2.44
2023-04-15T16:51:21.168Z,2.46
2023-04-15T16:53:20.573Z,2.46
2023-04-15T16:55:20.025Z,2.46
2023-04-15T16:57:20.596Z,2.47
2023-04-15T16:59:24.363Z,2.47
2023-04-15T17:01:25.336Z,2.48
2023-04-15T17:03:22.481Z,2.48
2023-04-15T17:05:21.143Z,2.48
2023-04-15T17:07:21.201Z,2.48
2023-04-15T17:09:20.373Z,2.48
2023-04-15T17:11:20.793Z,2.48
2023-04-15T17:13:20.152Z,2.48
2023-04-15T17:15:20.618Z,2.52
2023-04-15T17:17:20.257Z,2.52
2023-04-15T17:19:20.788Z,2.52
2023-04-15T17:21:20.774Z,2.54
2023-04-15T17:23:20.231Z,2.54
2023-04-15T17:25:20.573Z,2.54
2023-04-15T17:27:20.309Z,2.52
2023-04-15T17:29:20.816Z,2.52
2023-04-15T17:31:20.519Z,2.52
2023-04-15T17:34:18.896Z,2.54
2023-04-15T17:35:47.404Z,2.54
2023-04-15T17:37:20.837Z,2.54
2023-04-15T17:39:20.375Z,2.58
2023-04-15T17:41:20.838Z,2.58
2023-04-15T17:43:20.417Z,2.58
2023-04-15T17:45:21.644Z,2.56
2023-04-15T17:47:20.689Z,2.56
2023-04-15T17:49:20.805Z,2.56
2023-04-15T17:51:20.569Z,2.59
2023-04-15T17:53:20.553Z,2.59
2023-04-15T17:55:20.024Z,2.59
2023-04-15T17:57:20.526Z,2.65
2023-04-15T17:59:20.837Z,2.65
2023-04-15T18:01:24.217Z,2.65
2023-04-15T18:03:23.998Z,2.65
2023-04-15T18:05:24.054Z,2.65
2023-04-15T18:07:20.163Z,2.65
2023-04-15T18:09:20.652Z,2.66
2023-04-15T18:11:20.174Z,2.66
2023-04-15T18:13:20.946Z,2.66
2023-04-15T18:15:31.537Z,2.66
2023-04-15T18:17:21.280Z,2.66
2023-04-15T18:19:20.443Z,2.66
2023-04-15T18:21:24.272Z,2.66
2023-04-15T18:23:20.524Z,2.66
2023-04-15T18:25:19.993Z,2.66
2023-04-15T18:27:22.930Z,2.66
2023-04-15T18:29:19.811Z,2.66
2023-04-15T18:31:20.583Z,2.66
2023-04-15T18:33:20.693Z,2.65
2023-04-15T18:35:20.712Z,2.65
2023-04-15T18:37:20.084Z,2.65
2023-04-15T18:39:20.650Z,2.56
2023-04-15T18:41:21.521Z,2.56
2023-04-15T18:43:20.773Z,2.56
2023-04-15T18:45:20.409Z,2.52
2023-04-15T18:47:21.361Z,2.52
2023-04-15T18:49:20.404Z,2.52
2023-04-15T18:51:20.196Z,2.55
2023-04-15T18:53:20.733Z,2.55
2023-04-15T18:55:20.092Z,2.55
2023-04-15T18:57:23.487Z,2.62
2023-04-15T19:01:24.857Z,2.62
2023-04-15T19:03:21.708Z,2.62
2023-04-15T19:05:20.367Z,2.62
2023-04-15T19:07:20.618Z,2.62
2023-04-15T19:09:20.209Z,2.59
2023-04-15T19:11:20.784Z,2.59
2023-04-15T19:13:20.456Z,2.59
2023-04-15T19:15:21.060Z,2.63
2023-04-15T19:17:20.840Z,2.63
2023-04-15T19:19:21.126Z,2.63
2023-04-15T19:21:24.938Z,2.59
2023-04-15T19:23:20.762Z,2.59
2023-04-15T19:25:20.409Z,2.59
2023-04-15T19:27:20.217Z,2.59
2023-04-15T19:29:20.663Z,2.59
2023-04-15T19:31:20.647Z,2.59
2023-04-15T19:33:21.245Z,2.56
2023-04-15T19:35:22.953Z,2.56
2023-04-15T19:37:20.064Z,2.56
2023-04-15T19:39:20.498Z,2.58
2023-04-15T19:41:21.151Z,2.58
2023-04-15T19:43:20.560Z,2.58
2023-04-15T19:45:20.038Z,2.62
2023-04-15T19:47:21.208Z,2.62
2023-04-15T19:49:20.055Z,2.62
2023-04-15T19:51:20.601Z,2.59
2023-04-15T19:53:20.033Z,2.59
2023-04-15T19:55:20.465Z,2.59
2023-04-15T19:57:20.216Z,2.52
2023-04-15T19:59:20.595Z,2.52
2023-04-15T20:01:23.648Z,2.52
2023-04-15T20:03:21.822Z,2.54
2023-04-15T20:05:21.413Z,2.54
2023-04-15T20:07:20.162Z,2.54
2023-04-15T20:09:22.899Z,2.51
2023-04-15T20:11:20.848Z,2.51
2023-04-15T20:14:10.851Z,2.5
2023-04-15T20:15:19.926Z,2.48
2023-04-15T20:17:21.009Z,2.48
2023-04-15T20:19:20.127Z,2.48
2023-04-15T20:21:20.467Z,2.52
2023-04-15T20:23:19.995Z,2.52
2023-04-15T20:25:20.627Z,2.52
2023-04-15T20:27:20.076Z,2.5
2023-04-15T20:29:20.554Z,2.5
2023-04-15T20:31:20.241Z,2.5
2023-04-15T20:33:21.712Z,2.47
2023-04-15T20:35:20.326Z,2.47
2023-04-15T20:37:20.970Z,2.47
2023-04-15T20:39:20.263Z,2.47
2023-04-15T20:41:21.035Z,2.47
2023-04-15T20:43:20.071Z,2.47
2023-04-15T20:45:20.628Z,2.5
2023-04-15T20:47:36.980Z,2.5
2023-04-15T20:49:20.575Z,2.5
2023-04-15T20:51:20.128Z,2.48
2023-04-15T20:53:20.810Z,2.48
2023-04-15T20:55:20.363Z,2.48
2023-04-15T20:57:20.718Z,2.48
2023-04-15T20:59:20.199Z,2.48
2023-04-15T21:01:24.260Z,2.48
2023-04-15T21:03:22.579Z,2.46
2023-04-15T21:05:21.232Z,2.46
2023-04-15T21:07:20.489Z,2.46
2023-04-15T21:09:19.974Z,2.47
2023-04-15T21:11:36.891Z,2.47
2023-04-15T21:13:21.158Z,2.47
2023-04-15T21:15:20.542Z,2.48
2023-04-15T21:17:22.797Z,2.48
2023-04-15T21:19:21.062Z,2.48
2023-04-15T21:21:20.611Z,2.47
2023-04-15T21:23:23.095Z,2.47
2023-04-15T21:25:20.944Z,2.47
2023-04-15T21:27:20.197Z,2.52
2023-04-15T21:29:20.896Z,2.52
2023-04-15T21:31:20.278Z,2.52
2023-04-15T21:33:21.289Z,2.56
2023-04-15T21:35:20.456Z,2.56
2023-04-15T21:37:20.782Z,2.56
2023-04-15T21:39:20.219Z,2.51
2023-04-15T21:41:20.997Z,2.51
2023-04-15T21:43:20.786Z,2.51
2023-04-15T21:45:22.735Z,2.59
2023-04-15T21:47:59.965Z,2.59
2023-04-15T21:49:27.571Z,2.59
2023-04-15T21:51:20.555Z,2.55
2023-04-15T21:53:20.304Z,2.55
2023-04-15T21:55:20.835Z,2.55
2023-04-15T21:57:20.075Z,2.5
2023-04-15T21:59:20.624Z,2.5
2023-04-15T22:01:20.341Z,2.5
2023-04-15T22:03:21.792Z,2.47
2023-04-15T22:05:21.496Z,2.47
2023-04-15T22:07:19.977Z,2.47
2023-04-15T22:09:36.917Z,2.54
2023-04-15T22:11:20.039Z,2.54
2023-04-15T22:13:20.715Z,2.54
2023-04-15T22:15:20.319Z,2.5
2023-04-15T22:17:21.207Z,2.5
2023-04-15T22:19:20.193Z,2.5
2023-04-15T22:21:20.886Z,2.47
2023-04-15T22:23:40.636Z,2.47
2023-04-15T22:25:58.648Z,2.46
2023-04-15T22:27:20.078Z,2.46
2023-04-15T22:29:19.996Z,2.46
2023-04-15T22:31:20.835Z,2.46
2023-04-15T22:33:20.304Z,2.46
2023-04-15T22:35:20.591Z,2.46
2023-04-15T22:37:20.046Z,2.46
2023-04-15T22:39:20.650Z,2.48
2023-04-15T22:41:20.377Z,2.48
2023-04-15T22:43:20.868Z,2.48
2023-04-15T22:45:20.074Z,2.5
2023-04-15T22:47:21.080Z,2.5
2023-04-15T22:49:20.688Z,2.5
2023-04-15T22:51:21.041Z,2.46
2023-04-15T22:53:34.837Z,2.46
2023-04-15T22:55:20.755Z,2.46
2023-04-15T22:57:20.510Z,2.51
2023-04-15T22:59:20.494Z,2.51
2023-04-15T23:01:24.030Z,2.51
2023-04-15T23:03:22.538Z,2.47
2023-04-15T23:05:47.052Z,2.47
2023-04-15T23:07:21.393Z,2.47
2023-04-15T23:09:20.970Z,2.52
2023-04-15T23:11:21.098Z,2.52
2023-04-15T23:13:20.348Z,2.52
2023-04-15T23:15:20.835Z,2.55
2023-04-15T23:17:20.721Z,2.55
2023-04-15T23:19:21.400Z,2.55
2023-04-15T23:21:20.608Z,2.54
2023-04-15T23:23:20.016Z,2.54
2023-04-15T23:25:20.732Z,2.54
2023-04-15T23:27:20.307Z,2.51
2023-04-15T23:29:21.453Z,2.51
2023-04-15T23:31:23.242Z,2.51
2023-04-15T23:33:21.253Z,2.52
2023-04-15T23:35:20.148Z,2.52
2023-04-15T23:37:20.854Z,2.52
2023-04-15T23:39:20.695Z,2.52
2023-04-15T23:41:20.809Z,2.52
2023-04-15T23:43:20.502Z,2.52
2023-04-15T23:45:19.818Z,2.52
2023-04-15T23:47:21.155Z,2.52
2023-04-15T23:49:20.721Z,2.52
2023-04-15T23:51:20.603Z,2.52
2023-04-15T23:53:20.223Z,2.52
2023-04-15T23:55:20.705Z,2.52
2023-04-15T23:57:20.420Z,2.55
2023-04-15T23:59:21.386Z,2.55
